Lunamar — 5BNV2 — position and weather

sailwx.info

Track history (hours):
 
Tides and Currents Weather Stations Pressure Air Temp Water Temp Dewpoint Dewpoint Depression Visibility Wind Speed Wind Dir Waves Ship Positions

Lunamar

Last reported at 2014-Sep-18 18:14 UTC. Time now 2014-Sep-19 15:56 UTC.
Position N 55°29' E 019°40'.

Length 90 m; draft 3.6 m.

Type: Cargo ship. MMSI: 212762000.

Date/timePositionNaut miles runAvg speedWind from/ knotsBaromVisibWave heightAir tempDewpointWater temp
2014-Sep-18 18:14N 55°29' E 019°40'811.3
2014-Sep-18 17:33N 55°26' E 019°27'1111.2
2014-Sep-18 16:33N 55°22' E 019°09'1111.2
2014-Sep-18 15:33N 55°18' E 018°51'1111.1
2014-Sep-18 14:34N 55°13' E 018°33'1111.0
2014-Sep-18 13:34N 55°07' E 018°17'1210.7
2014-Sep-18 12:25N 55°02' E 017°57'1011.1
2014-Sep-18 11:32N 54°58' E 017°42'1510.9
2014-Sep-18 10:08N 54°52' E 017°17'7711.1
2014-Sep-18 03:09N 54°24' E 015°13'710.8
2014-Sep-18 02:30N 54°20' E 015°02'1211.0
2014-Sep-18 01:24N 54°14' E 014°44'911.2
2014-Sep-18 00:33N 54°09' E 014°31'1111.2
2014-Sep-17 23:33N 54°01' E 014°18'8 8.4
2014-Sep-17 22:33N 53°53' E 014°16'9 8.5
2014-Sep-17 21:34N 53°46' E 014°24'1111.2
2014-Sep-17 20:34N 53°37' E 014°35'9 8.8
2014-Sep-17 19:34N 53°28' E 014°36'2 2.1
2014-Sep-17 18:32N 53°26' E 014°35'0 0.0
2014-Sep-17 17:32N 53°26' E 014°35'0 0.0
2014-Sep-17 16:32N 53°26' E 014°35'0 0.0
2014-Sep-17 15:32N 53°26' E 014°35'0 0.0
2014-Sep-17 14:32N 53°26' E 014°35'0 0.0
2014-Sep-17 13:32N 53°26' E 014°35'0 0.0
2014-Sep-17 12:32N 53°26' E 014°35'0 0.0
2014-Sep-17 11:34N 53°26' E 014°35'6 5.6
2014-Sep-17 10:34N 53°31' E 014°38'9 9.0
2014-Sep-17 09:33N 53°40' E 014°32'1110.7
2014-Sep-17 08:34N 53°48' E 014°21'7 6.8
2014-Sep-17 07:34N 53°54' E 014°15'9 8.6
2014-Sep-17 06:34N 54°02' E 014°14'1111.1
2014-Sep-17 05:34N 54°13' E 014°11'1010.4
2014-Sep-17 04:33N 54°20' E 013°57'1110.7
2014-Sep-17 03:34N 54°29' E 013°48'1110.5
2014-Sep-17 02:33N 54°39' E 013°39'1010.2
2014-Sep-17 01:34N 54°45' E 013°25'1110.5
2014-Sep-17 00:33N 54°45' E 013°07'1010.3
2014-Sep-16 23:34N 54°44' E 012°49'10 9.7
2014-Sep-16 22:32N 54°40' E 012°33'9 9.7
2014-Sep-16 21:34N 54°35' E 012°20'9 9.0
2014-Sep-16 20:33N 54°27' E 012°13'8 8.2
2014-Sep-16 19:33N 54°24' E 012°00'9 9.0
2014-Sep-16 18:34N 54°20' E 011°46'1110.5
2014-Sep-16 17:33N 54°14' E 011°31'1010.4
2014-Sep-16 16:33N 54°09' E 011°16'1110.8
2014-Sep-16 15:33N 54°02' E 011°01'2 0.1
2014-Sep-15 14:07N 54°03' E 010°58'0 0.0
2014-Sep-15 08:08N 54°03' E 010°58'0 0.1
2014-Sep-15 07:33N 54°03' E 010°58'8 6.8
2014-Sep-15 06:24N 54°07' E 011°09'1010.8
2014-Sep-15 05:28N 54°13' E 011°23'1010.8
2014-Sep-15 04:33N 54°18' E 011°37'1111.0
2014-Sep-15 03:33N 54°24' E 011°53'3610.5
2014-Sep-15 00:05N 54°47' E 012°42'3110.6
2014-Sep-14 21:11N 54°57' E 013°32'710.6
2014-Sep-14 20:33N 54°60' E 013°43'1110.6
2014-Sep-14 19:33N 55°04' E 013°60'1110.5
2014-Sep-14 18:33N 55°11' E 014°13'1110.7
2014-Sep-14 17:33N 55°19' E 014°26'1110.6
2014-Sep-14 16:33N 55°27' E 014°38'1110.6
2014-Sep-14 15:32N 55°33' E 014°54'1110.7
2014-Sep-14 14:30N 55°38' E 015°11'4311.0
2014-Sep-14 10:33N 55°60' E 016°18'5510.5
2014-Sep-14 05:18N 56°47' E 017°11'811.0
2014-Sep-14 04:33N 56°55' E 017°16'1211.0
2014-Sep-14 03:30N 57°06' E 017°23'1011.0
2014-Sep-14 02:34N 57°15' E 017°31'1110.9
2014-Sep-14 01:31N 57°26' E 017°39'  
Track history (hours):
 
Tides and Currents Weather Stations Pressure Air Temp Water Temp Dewpoint Dewpoint Depression Visibility Wind Speed Wind Dir Waves Ship Positions

Lunamar

Last reported at 2014-Sep-18 18:14 UTC. Time now 2014-Sep-19 15:56 UTC.
Position N 55°29' E 019°40'.

Length 90 m; draft 3.6 m.

Type: Cargo ship. MMSI: 212762000.

Date/timePositionNaut miles runAvg speedWind from/ knotsBaromVisibWave heightAir tempDewpointWater temp
2014-Sep-18 18:14N 55°29' E 019°40'811.3
2014-Sep-18 17:33N 55°26' E 019°27'1111.2
2014-Sep-18 16:33N 55°22' E 019°09'1111.2
2014-Sep-18 15:33N 55°18' E 018°51'1111.1
2014-Sep-18 14:34N 55°13' E 018°33'1111.0
2014-Sep-18 13:34N 55°07' E 018°17'1210.7
2014-Sep-18 12:25N 55°02' E 017°57'1011.1
2014-Sep-18 11:32N 54°58' E 017°42'1510.9
2014-Sep-18 10:08N 54°52' E 017°17'7711.1
2014-Sep-18 03:09N 54°24' E 015°13'710.8
2014-Sep-18 02:30N 54°20' E 015°02'1211.0
2014-Sep-18 01:24N 54°14' E 014°44'911.2
2014-Sep-18 00:33N 54°09' E 014°31'1111.2
2014-Sep-17 23:33N 54°01' E 014°18'8 8.4
2014-Sep-17 22:33N 53°53' E 014°16'9 8.5
2014-Sep-17 21:34N 53°46' E 014°24'1111.2
2014-Sep-17 20:34N 53°37' E 014°35'9 8.8
2014-Sep-17 19:34N 53°28' E 014°36'2 2.1
2014-Sep-17 18:32N 53°26' E 014°35'0 0.0
2014-Sep-17 17:32N 53°26' E 014°35'0 0.0
2014-Sep-17 16:32N 53°26' E 014°35'0 0.0
2014-Sep-17 15:32N 53°26' E 014°35'0 0.0
2014-Sep-17 14:32N 53°26' E 014°35'0 0.0
2014-Sep-17 13:32N 53°26' E 014°35'0 0.0
2014-Sep-17 12:32N 53°26' E 014°35'0 0.0
2014-Sep-17 11:34N 53°26' E 014°35'6 5.6
2014-Sep-17 10:34N 53°31' E 014°38'9 9.0
2014-Sep-17 09:33N 53°40' E 014°32'1110.7
2014-Sep-17 08:34N 53°48' E 014°21'7 6.8
2014-Sep-17 07:34N 53°54' E 014°15'9 8.6
2014-Sep-17 06:34N 54°02' E 014°14'1111.1
2014-Sep-17 05:34N 54°13' E 014°11'1010.4
2014-Sep-17 04:33N 54°20' E 013°57'1110.7
2014-Sep-17 03:34N 54°29' E 013°48'1110.5
2014-Sep-17 02:33N 54°39' E 013°39'1010.2
2014-Sep-17 01:34N 54°45' E 013°25'1110.5
2014-Sep-17 00:33N 54°45' E 013°07'1010.3
2014-Sep-16 23:34N 54°44' E 012°49'10 9.7
2014-Sep-16 22:32N 54°40' E 012°33'9 9.7
2014-Sep-16 21:34N 54°35' E 012°20'9 9.0
2014-Sep-16 20:33N 54°27' E 012°13'8 8.2
2014-Sep-16 19:33N 54°24' E 012°00'9 9.0
2014-Sep-16 18:34N 54°20' E 011°46'1110.5
2014-Sep-16 17:33N 54°14' E 011°31'1010.4
2014-Sep-16 16:33N 54°09' E 011°16'1110.8
2014-Sep-16 15:33N 54°02' E 011°01'2 0.1
2014-Sep-15 14:07N 54°03' E 010°58'0 0.0
2014-Sep-15 08:08N 54°03' E 010°58'0 0.1
2014-Sep-15 07:33N 54°03' E 010°58'8 6.8
2014-Sep-15 06:24N 54°07' E 011°09'1010.8
2014-Sep-15 05:28N 54°13' E 011°23'1010.8
2014-Sep-15 04:33N 54°18' E 011°37'1111.0
2014-Sep-15 03:33N 54°24' E 011°53'3610.5
2014-Sep-15 00:05N 54°47' E 012°42'3110.6
2014-Sep-14 21:11N 54°57' E 013°32'710.6
2014-Sep-14 20:33N 54°60' E 013°43'1110.6
2014-Sep-14 19:33N 55°04' E 013°60'1110.5
2014-Sep-14 18:33N 55°11' E 014°13'1110.7
2014-Sep-14 17:33N 55°19' E 014°26'1110.6
2014-Sep-14 16:33N 55°27' E 014°38'1110.6
2014-Sep-14 15:32N 55°33' E 014°54'1110.7
2014-Sep-14 14:30N 55°38' E 015°11'4311.0
2014-Sep-14 10:33N 55°60' E 016°18'5510.5
2014-Sep-14 05:18N 56°47' E 017°11'811.0
2014-Sep-14 04:33N 56°55' E 017°16'1211.0
2014-Sep-14 03:30N 57°06' E 017°23'1011.0
2014-Sep-14 02:34N 57°15' E 017°31'1110.9
2014-Sep-14 01:31N 57°26' E 017°39'  

Dump ship's entire track history